Time;durP1;ratioP1;P1;durP2;ratioP2;P2;SDS_P1;SDS_P2;PMS_P1;PMS_P2;Temp;Humidity;BMP_temperature;BMP_pressure;BME280_temperature;BME280_humidity;BME280_pressure;Samples;Min_cycle;Max_cycle;Signal;HPM_P1;HPM_P2
2022/03/31 00:00:46;;;;;;;9.93;4.80;;;7.30;76.30;;;;;;5073961;28;20123;-78
2022/03/31 00:03:14;;;;;;;10.40;5.20;;;7.30;76.40;;;;;;5057529;28;20031;-79
2022/03/31 00:05:40;;;;;;;8.60;4.63;;;7.30;76.80;;;;;;5075507;28;20028;-79
2022/03/31 00:08:11;;;;;;;7.97;4.47;;;7.30;76.70;;;;;;5057403;28;20423;-78
2022/03/31 00:11:08;;;;;;;10.10;5.00;;;7.20;76.80;;;;;;5057260;28;20029;-78
2022/03/31 00:13:34;;;;;;;8.00;4.97;;;7.20;77.20;;;;;;5044424;28;20789;-79
2022/03/31 00:15:59;;;;;;;9.63;5.37;;;7.10;77.00;;;;;;5075267;28;20079;-77
2022/03/31 00:18:27;;;;;;;9.13;5.10;;;7.10;77.70;;;;;;5075346;28;20056;-78
2022/03/31 00:20:53;;;;;;;9.37;5.50;;;7.10;78.20;;;;;;5057205;28;20053;-78
2022/03/31 00:23:19;;;;;;;9.50;5.40;;;7.00;78.30;;;;;;5057119;28;20067;-78
2022/03/31 00:25:45;;;;;;;11.57;5.83;;;7.00;78.00;;;;;;5057165;28;20028;-78
2022/03/31 00:28:10;;;;;;;10.53;6.03;;;7.00;78.40;;;;;;5040360;28;20020;-78
2022/03/31 00:30:36;;;;;;;10.67;5.97;;;7.00;79.00;;;;;;5057126;28;20043;-78
2022/03/31 00:33:02;;;;;;;8.63;5.30;;;7.00;79.10;;;;;;5074848;28;20087;-79
2022/03/31 00:35:28;;;;;;;11.83;5.60;;;6.90;78.70;;;;;;5056871;28;20060;-81
2022/03/31 00:37:54;;;;;;;10.63;6.37;;;6.90;79.20;;;;;;5040268;28;20029;-79
2022/03/31 00:40:22;;;;;;;9.67;5.67;;;6.90;79.70;;;;;;5056781;28;20036;-79
2022/03/31 00:42:51;;;;;;;11.20;5.80;;;6.80;80.10;;;;;;5040130;28;20029;-81
2022/03/31 00:45:20;;;;;;;10.57;6.27;;;6.70;80.80;;;;;;5056902;28;20021;-79
2022/03/31 00:47:47;;;;;;;8.17;5.67;;;6.70;81.30;;;;;;5056769;28;20136;-79
2022/03/31 00:50:13;;;;;;;11.87;6.97;;;6.60;81.40;;;;;;5039866;28;20174;-78
2022/03/31 00:52:40;;;;;;;10.47;6.40;;;6.60;81.60;;;;;;5040035;28;20488;-79
2022/03/31 00:55:09;;;;;;;11.60;7.30;;;6.50;82.10;;;;;;5074454;28;20037;-78
2022/03/31 00:57:36;;;;;;;9.50;5.97;;;6.50;82.70;;;;;;5074631;28;20078;-78
2022/03/31 01:00:07;;;;;;;10.53;6.10;;;6.50;83.10;;;;;;5056431;28;20029;-79
2022/03/31 01:02:33;;;;;;;9.90;6.47;;;6.40;82.80;;;;;;5057171;28;20033;-79
2022/03/31 01:05:02;;;;;;;12.90;7.13;;;6.40;82.90;;;;;;5056745;28;20473;-79
2022/03/31 01:07:28;;;;;;;10.77;6.33;;;6.40;83.20;;;;;;5056794;28;20025;-78
2022/03/31 01:09:54;;;;;;;11.10;7.30;;;6.30;83.50;;;;;;5056220;28;20078;-78
2022/03/31 01:12:20;;;;;;;10.63;6.27;;;6.30;83.90;;;;;;5055827;28;20028;-78
2022/03/31 01:14:46;;;;;;;10.07;6.50;;;6.20;84.00;;;;;;5056308;28;20094;-78
2022/03/31 01:17:11;;;;;;;10.57;6.33;;;6.20;84.80;;;;;;5073991;28;20480;-79
2022/03/31 01:19:37;;;;;;;12.83;7.27;;;6.20;84.20;;;;;;5056148;28;20468;-78
2022/03/31 01:22:04;;;;;;;11.07;6.47;;;6.20;84.20;;;;;;5073823;28;20036;-78
2022/03/31 01:24:29;;;;;;;11.80;6.90;;;6.20;84.20;;;;;;5023572;28;20093;-78
2022/03/31 01:26:55;;;;;;;9.87;6.13;;;6.10;84.90;;;;;;5072680;28;20134;-78
2022/03/31 01:29:23;;;;;;;11.10;7.27;;;6.10;85.10;;;;;;5074031;28;20550;-78
2022/03/31 01:31:49;;;;;;;9.27;5.57;;;6.10;85.20;;;;;;5073859;28;20067;-79
2022/03/31 01:34:15;;;;;;;9.67;5.70;;;6.10;85.60;;;;;;5056007;28;20035;-78
2022/03/31 01:36:40;;;;;;;9.60;5.30;;;6.00;85.70;;;;;;5039242;28;20032;-78
2022/03/31 01:39:06;;;;;;;10.17;5.70;;;6.00;85.70;;;;;;5072440;28;20027;-79
2022/03/31 01:41:32;;;;;;;8.87;5.80;;;6.00;86.10;;;;;;5055273;28;20039;-79
2022/03/31 01:43:58;;;;;;;9.67;5.77;;;6.00;86.10;;;;;;5079124;28;20059;-78
2022/03/31 01:46:23;;;;;;;7.97;4.73;;;5.90;86.60;;;;;;5075931;28;20357;-79
2022/03/31 01:48:51;;;;;;;7.73;5.13;;;5.90;86.50;;;;;;5061184;28;20044;-78
2022/03/31 01:51:17;;;;;;;7.03;4.50;;;5.90;86.50;;;;;;5039205;28;20032;-80
2022/03/31 01:53:43;;;;;;;7.30;3.50;;;5.90;86.70;;;;;;5073380;28;20552;-79
2022/03/31 01:56:08;;;;;;;6.60;4.03;;;5.90;87.20;;;;;;5073489;28;20032;-78
2022/03/31 01:58:34;;;;;;;7.33;4.10;;;5.80;87.40;;;;;;5022348;28;20123;-79
2022/03/31 02:01:00;;;;;;;6.33;3.73;;;5.80;87.60;;;;;;5060491;28;20064;-82
2022/03/31 02:03:26;;;;;;;6.40;3.50;;;5.80;87.80;;;;;;5093612;28;20383;-82
2022/03/31 02:05:51;;;;;;;9.43;3.70;;;5.70;88.60;;;;;;5075410;28;20388;-78
2022/03/31 02:08:20;;;;;;;7.90;3.70;;;5.70;88.80;;;;;;5075568;28;20036;-77
2022/03/31 02:10:46;;;;;;;7.13;4.00;;;5.80;88.50;;;;;;5075362;28;20491;-78
2022/03/31 02:13:13;;;;;;;5.97;2.93;;;5.70;88.40;;;;;;5075443;28;20036;-78
2022/03/31 02:15:38;;;;;;;6.17;3.20;;;5.70;88.70;;;;;;5093743;28;20028;-78
2022/03/31 02:18:04;;;;;;;6.80;3.23;;;5.60;88.40;;;;;;5075300;28;20024;-78
2022/03/31 02:20:31;;;;;;;4.80;2.53;;;5.60;88.50;;;;;;5075356;28;20051;-77
2022/03/31 02:23:00;;;;;;;6.03;2.97;;;5.60;88.60;;;;;;5076006;28;20020;-80
2022/03/31 02:25:27;;;;;;;4.47;2.47;;;5.50;88.90;;;;;;5077831;28;20028;-80
2022/03/31 02:27:53;;;;;;;3.57;2.30;;;5.50;89.00;;;;;;5070368;28;20431;-78
2022/03/31 02:30:20;;;;;;;4.07;2.20;;;5.50;89.70;;;;;;5059216;28;20127;-81
2022/03/31 02:32:46;;;;;;;4.90;2.30;;;5.50;90.00;;;;;;5059230;28;20031;-78
2022/03/31 02:35:12;;;;;;;4.60;2.30;;;5.40;89.50;;;;;;5077160;28;20033;-78
2022/03/31 02:37:38;;;;;;;3.27;1.70;;;5.40;90.00;;;;;;5076319;28;20039;-77
2022/03/31 02:40:06;;;;;;;3.53;2.00;;;5.40;90.30;;;;;;5075807;28;20082;-78
2022/03/31 02:42:32;;;;;;;4.20;2.20;;;5.30;90.10;;;;;;5058850;28;20431;-78
2022/03/31 02:44:58;;;;;;;5.03;2.10;;;5.30;90.10;;;;;;5058995;28;20108;-77
2022/03/31 02:47:24;;;;;;;3.47;1.93;;;5.30;90.00;;;;;;5059676;28;20056;-78
2022/03/31 02:49:50;;;;;;;4.47;1.80;;;5.30;89.80;;;;;;5058939;28;20516;-78
2022/03/31 02:52:15;;;;;;;3.20;1.50;;;5.30;89.90;;;;;;5042356;28;20028;-79
2022/03/31 02:57:25;;;;;;;3.13;1.40;;;5.20;89.80;;;;;;5061913;28;20393;-80
2022/03/31 02:59:51;;;;;;;3.40;1.10;;;5.20;89.80;;;;;;5075723;28;20480;-79
2022/03/31 03:02:16;;;;;;;2.03;1.00;;;5.20;90.10;;;;;;5058744;28;20471;-78
2022/03/31 03:04:42;;;;;;;2.13;1.10;;;5.20;90.00;;;;;;5058829;28;20132;-78
2022/03/31 03:07:08;;;;;;;2.90;1.30;;;5.10;90.20;;;;;;5058580;28;20028;-79
2022/03/31 03:09:34;;;;;;;2.53;1.27;;;5.10;90.10;;;;;;5058724;28;20016;-78
2022/03/31 03:11:59;;;;;;;2.03;1.00;;;5.00;90.00;;;;;;5058788;28;20021;-79
2022/03/31 03:14:25;;;;;;;2.20;1.10;;;5.10;90.20;;;;;;5076415;28;20033;-77
2022/03/31 03:16:51;;;;;;;3.80;1.03;;;5.00;90.20;;;;;;5076705;28;20139;-78
2022/03/31 03:19:17;;;;;;;5.13;1.20;;;4.90;90.20;;;;;;5058601;28;20020;-77
2022/03/31 03:21:42;;;;;;;1.87;1.07;;;5.00;90.20;;;;;;5058470;28;20058;-78
2022/03/31 03:24:10;;;;;;;2.83;1.20;;;4.90;90.30;;;;;;5058376;28;20021;-78
2022/03/31 03:26:36;;;;;;;2.93;1.20;;;4.90;90.40;;;;;;5042111;28;20027;-77
2022/03/31 03:29:01;;;;;;;1.87;0.93;;;4.80;90.70;;;;;;5058309;28;20111;-78
2022/03/31 03:31:27;;;;;;;2.47;0.90;;;4.90;90.80;;;;;;5058400;28;20032;-81
2022/03/31 03:33:53;;;;;;;1.93;1.03;;;4.80;91.10;;;;;;5058078;28;20033;-78
2022/03/31 03:36:19;;;;;;;2.23;1.17;;;4.80;90.80;;;;;;5058219;28;20037;-78
2022/03/31 03:38:44;;;;;;;1.63;0.80;;;4.80;90.90;;;;;;5058377;28;20468;-78
2022/03/31 03:41:12;;;;;;;1.90;0.90;;;4.70;90.70;;;;;;5076028;28;20063;-78
2022/03/31 03:43:39;;;;;;;1.70;0.80;;;4.70;90.80;;;;;;5057949;28;20027;-80
2022/03/31 03:46:05;;;;;;;2.03;0.80;;;4.70;90.90;;;;;;5075811;28;20426;-79
2022/03/31 03:48:31;;;;;;;1.83;0.80;;;4.70;90.90;;;;;;5075921;28;20127;-78
2022/03/31 03:50:57;;;;;;;3.00;1.10;;;4.60;90.90;;;;;;5075934;28;20036;-78
2022/03/31 03:53:23;;;;;;;2.83;0.90;;;4.70;90.90;;;;;;5075740;28;20016;-78
2022/03/31 03:55:48;;;;;;;2.60;1.07;;;4.60;91.30;;;;;;5075705;28;20024;-77
2022/03/31 03:58:14;;;;;;;2.30;1.07;;;4.70;91.30;;;;;;5058056;28;20366;-77
2022/03/31 04:00:40;;;;;;;2.80;1.33;;;4.70;91.50;;;;;;5057645;28;20095;-77
2022/03/31 04:03:07;;;;;;;5.17;1.13;;;4.60;91.70;;;;;;5075397;28;20111;-77
2022/03/31 04:05:32;;;;;;;2.33;1.13;;;4.60;92.00;;;;;;5057485;28;20013;-78
2022/03/31 04:07:58;;;;;;;3.30;1.20;;;4.60;91.90;;;;;;5075715;28;20544;-78
2022/03/31 04:10:24;;;;;;;2.37;0.93;;;4.60;91.90;;;;;;5040888;28;20048;-78
2022/03/31 04:12:49;;;;;;;2.33;1.20;;;4.60;92.30;;;;;;5057714;28;20123;-78
2022/03/31 04:15:15;;;;;;;2.30;0.93;;;4.50;91.90;;;;;;5075308;28;20036;-77
2022/03/31 04:17:43;;;;;;;3.13;1.00;;;4.60;92.60;;;;;;5057494;28;20052;-77
2022/03/31 04:20:10;;;;;;;2.20;0.97;;;4.60;92.50;;;;;;5057192;28;20020;-78
2022/03/31 04:22:37;;;;;;;3.23;1.20;;;4.60;92.20;;;;;;5057043;28;20030;-78
2022/03/31 04:25:05;;;;;;;2.50;1.00;;;4.60;92.10;;;;;;5075066;28;20468;-78
2022/03/31 04:27:32;;;;;;;3.03;1.00;;;4.50;91.90;;;;;;5057011;28;20016;-78
2022/03/31 04:29:58;;;;;;;2.53;1.10;;;4.60;91.90;;;;;;5073395;28;20067;-79
2022/03/31 04:32:24;;;;;;;2.43;1.07;;;4.60;91.90;;;;;;5074635;28;20032;-79
2022/03/31 04:34:50;;;;;;;1.90;0.80;;;4.50;91.70;;;;;;5057033;28;20029;-78
2022/03/31 04:37:16;;;;;;;1.60;0.70;;;4.50;91.70;;;;;;5074660;28;20020;-79
2022/03/31 04:39:41;;;;;;;1.73;0.80;;;4.60;91.70;;;;;;5074866;28;20485;-77
2022/03/31 04:42:09;;;;;;;1.43;0.67;;;4.50;91.90;;;;;;5056894;28;20028;-78
2022/03/31 04:44:37;;;;;;;1.00;0.60;;;4.50;91.50;;;;;;5074715;28;20078;-78
2022/03/31 04:47:06;;;;;;;1.50;0.70;;;4.50;91.50;;;;;;5074015;28;20440;-77
2022/03/31 04:49:32;;;;;;;1.57;0.70;;;4.40;91.60;;;;;;5057067;28;20045;-77
2022/03/31 04:51:59;;;;;;;2.10;0.80;;;4.40;91.70;;;;;;5040696;28;20078;-81
2022/03/31 04:54:24;;;;;;;5.90;1.00;;;4.40;91.70;;;;;;5056672;28;20055;-77
2022/03/31 04:56:50;;;;;;;2.80;0.90;;;4.50;91.60;;;;;;5074361;28;20477;-78
2022/03/31 04:59:15;;;;;;;2.00;1.00;;;4.40;91.70;;;;;;5039934;28;20025;-77
2022/03/31 05:01:41;;;;;;;1.83;1.00;;;4.30;91.70;;;;;;5039573;28;20110;-77
2022/03/31 05:04:07;;;;;;;1.60;0.80;;;4.40;91.60;;;;;;5057307;28;20097;-78
2022/03/31 05:06:33;;;;;;;2.53;1.07;;;4.30;91.50;;;;;;5059763;28;20024;-77
2022/03/31 05:08:58;;;;;;;2.23;1.03;;;4.40;91.80;;;;;;5076356;28;20391;-78
2022/03/31 05:11:24;;;;;;;1.43;0.70;;;4.40;91.80;;;;;;5070517;28;20484;-77
2022/03/31 05:13:50;;;;;;;3.80;1.20;;;4.30;92.20;;;;;;5025881;28;20489;-77
2022/03/31 05:16:15;;;;;;;2.10;0.90;;;4.40;92.40;;;;;;5065353;28;20028;-77
2022/03/31 05:18:41;;;;;;;2.47;1.03;;;4.30;92.60;;;;;;5086645;28;20036;-78
2022/03/31 05:21:06;;;;;;;2.77;1.40;;;4.30;92.70;;;;;;5073843;28;20040;-80
2022/03/31 05:23:32;;;;;;;2.37;0.90;;;4.20;92.80;;;;;;5073644;28;20033;-77
2022/03/31 05:25:58;;;;;;;1.63;0.90;;;4.20;92.90;;;;;;5055292;28;20035;-78
2022/03/31 05:28:23;;;;;;;3.47;1.20;;;4.10;92.90;;;;;;5055658;28;20086;-78
2022/03/31 05:30:49;;;;;;;2.47;1.07;;;4.10;93.00;;;;;;5055936;28;20049;-78
2022/03/31 05:33:15;;;;;;;4.33;1.43;;;4.10;93.40;;;;;;5073609;28;20035;-79
2022/03/31 05:35:41;;;;;;;2.67;1.17;;;4.00;93.40;;;;;;5055827;28;20044;-84
2022/03/31 05:38:07;;;;;;;2.63;1.33;;;3.90;93.60;;;;;;5039203;28;20021;-80
2022/03/31 05:40:32;;;;;;;2.77;1.23;;;4.00;94.00;;;;;;5039236;28;20119;-77
2022/03/31 05:42:58;;;;;;;2.63;1.10;;;3.90;93.60;;;;;;5055730;28;20128;-78
2022/03/31 05:45:25;;;;;;;2.80;1.47;;;3.90;93.80;;;;;;5055805;28;20029;-77
2022/03/31 05:47:51;;;;;;;2.73;1.20;;;3.80;94.00;;;;;;5055935;28;20381;-77
2022/03/31 05:50:17;;;;;;;4.33;1.50;;;3.80;94.00;;;;;;5055390;28;20037;-76
2022/03/31 05:52:43;;;;;;;2.70;1.40;;;3.70;94.00;;;;;;5079382;28;20036;-79
2022/03/31 05:55:16;;;;;;;3.73;1.60;;;3.70;94.10;;;;;;5039126;28;20380;-77
2022/03/31 05:57:42;;;;;;;3.40;1.80;;;3.70;94.10;;;;;;5083080;28;20108;-78
2022/03/31 06:00:13;;;;;;;3.53;1.63;;;3.60;94.00;;;;;;5093530;28;20027;-79
2022/03/31 06:02:40;;;;;;;3.43;1.40;;;3.50;94.00;;;;;;5086926;28;20033;-78
2022/03/31 06:05:06;;;;;;;3.50;1.80;;;3.50;94.00;;;;;;5073254;28;20024;-78
2022/03/31 06:07:32;;;;;;;3.83;1.70;;;3.40;94.00;;;;;;5073107;28;20040;-79
2022/03/31 06:09:58;;;;;;;3.03;1.60;;;3.40;93.70;;;;;;5073310;28;20025;-79
2022/03/31 06:12:23;;;;;;;3.17;1.70;;;3.40;93.70;;;;;;5055107;28;20028;-78
2022/03/31 06:14:49;;;;;;;3.20;1.40;;;3.40;93.70;;;;;;5073351;28;20037;-77
2022/03/31 06:17:15;;;;;;;3.10;1.40;;;3.40;93.70;;;;;;5073128;28;20024;-79
2022/03/31 06:19:41;;;;;;;3.10;1.47;;;3.40;93.60;;;;;;5055040;28;20040;-79
2022/03/31 06:22:07;;;;;;;4.13;1.47;;;3.40;93.70;;;;;;5072984;28;20037;-80
2022/03/31 06:24:33;;;;;;;3.20;1.67;;;3.40;93.90;;;;;;5072873;28;20024;-81
2022/03/31 06:27:00;;;;;;;3.43;1.63;;;3.50;93.90;;;;;;5073058;28;20021;-81
2022/03/31 06:29:26;;;;;;;3.07;1.43;;;3.50;93.90;;;;;;5072998;28;20051;-82
2022/03/31 06:31:53;;;;;;;3.47;1.50;;;3.50;93.80;;;;;;5072815;28;20028;-79
2022/03/31 06:34:19;;;;;;;3.03;1.50;;;3.50;93.80;;;;;;5051745;28;20028;-79
2022/03/31 06:36:45;;;;;;;2.57;1.30;;;3.40;93.70;;;;;;5075286;28;20505;-81
2022/03/31 06:39:11;;;;;;;2.03;1.20;;;3.60;94.00;;;;;;5074627;28;20040;-80
2022/03/31 06:41:36;;;;;;;2.10;1.07;;;3.50;94.10;;;;;;5051308;28;20066;-79
2022/03/31 06:44:02;;;;;;;2.63;1.00;;;3.60;94.00;;;;;;5038350;28;20029;-78
2022/03/31 06:46:28;;;;;;;3.57;1.50;;;3.60;94.20;;;;;;5055459;28;20477;-81
2022/03/31 06:48:54;;;;;;;2.67;1.30;;;3.60;94.00;;;;;;5073013;28;20374;-80
2022/03/31 06:51:19;;;;;;;2.17;1.10;;;3.60;93.90;;;;;;5038391;28;20028;-81
2022/03/31 06:53:45;;;;;;;2.13;1.07;;;3.60;94.10;;;;;;5055133;28;20024;-81
2022/03/31 06:56:16;;;;;;;3.17;1.40;;;3.60;94.20;;;;;;5038567;28;20024;-81
2022/03/31 06:58:42;;;;;;;2.17;1.20;;;3.70;94.00;;;;;;5023337;28;20123;-82
2022/03/31 07:01:08;;;;;;;2.60;1.50;;;3.60;94.10;;;;;;5054911;28;20432;-80
2022/03/31 07:03:36;;;;;;;2.10;1.10;;;3.70;94.10;;;;;;5054949;28;20380;-80
2022/03/31 07:06:02;;;;;;;2.97;1.33;;;3.90;94.30;;;;;;5055157;28;20036;-81
2022/03/31 07:08:27;;;;;;;2.47;1.30;;;4.00;94.40;;;;;;5038372;28;20021;-80
2022/03/31 07:10:53;;;;;;;2.47;1.33;;;3.90;94.40;;;;;;5025598;28;20031;-81
2022/03/31 07:13:19;;;;;;;2.60;1.30;;;3.90;94.50;;;;;;5041983;28;20016;-81
2022/03/31 07:15:45;;;;;;;2.33;1.30;;;3.90;94.30;;;;;;5042447;28;20545;-81
2022/03/31 07:18:11;;;;;;;2.67;1.50;;;3.90;94.20;;;;;;5041931;28;20112;-80
2022/03/31 07:20:37;;;;;;;3.37;1.53;;;4.10;94.30;;;;;;5053029;28;20024;-78
2022/03/31 07:23:03;;;;;;;1.93;1.00;;;4.00;94.30;;;;;;5062017;28;20383;-78
2022/03/31 07:25:29;;;;;;;2.87;1.27;;;4.00;94.30;;;;;;5078742;28;20418;-77
2022/03/31 07:27:55;;;;;;;2.47;1.30;;;4.10;94.40;;;;;;5096957;28;20099;-76
2022/03/31 07:30:22;;;;;;;2.30;1.27;;;4.10;94.40;;;;;;5078147;28;20743;-75
2022/03/31 07:33:00;;;;;;;2.67;1.40;;;4.10;94.30;;;;;;5061816;28;20426;-75
2022/03/31 07:35:29;;;;;;;2.60;1.50;;;4.20;94.10;;;;;;5077969;28;20054;-77
2022/03/31 07:37:55;;;;;;;2.70;1.57;;;4.30;94.30;;;;;;5096678;28;20503;-78
2022/03/31 07:40:22;;;;;;;2.23;1.37;;;4.20;94.20;;;;;;5096765;28;20038;-78
2022/03/31 07:42:49;;;;;;;2.70;1.37;;;4.10;94.20;;;;;;5096286;28;20035;-78
2022/03/31 07:45:14;;;;;;;2.33;1.20;;;4.20;94.30;;;;;;5078012;28;20094;-79
2022/03/31 07:47:41;;;;;;;2.70;1.53;;;4.20;94.20;;;;;;5044604;28;20025;-78
2022/03/31 07:50:09;;;;;;;2.13;1.13;;;4.20;94.30;;;;;;5061323;28;20392;-79
2022/03/31 07:52:36;;;;;;;2.50;1.30;;;4.30;94.50;;;;;;5078876;28;20023;-77
2022/03/31 07:55:03;;;;;;;2.43;1.30;;;4.30;94.20;;;;;;5061338;28;20047;-77
2022/03/31 07:57:28;;;;;;;2.00;1.10;;;4.30;94.10;;;;;;5077831;28;20111;-77
2022/03/31 07:59:54;;;;;;;3.23;1.87;;;4.40;94.10;;;;;;5078067;28;20576;-77
2022/03/31 08:02:21;;;;;;;2.80;1.50;;;4.40;94.10;;;;;;5061763;28;20077;-78
2022/03/31 08:04:47;;;;;;;3.63;2.03;;;4.40;94.10;;;;;;5061712;28;20027;-77
2022/03/31 08:07:12;;;;;;;2.57;1.50;;;4.40;94.00;;;;;;5061053;28;20024;-77
2022/03/31 08:09:38;;;;;;;2.53;1.30;;;4.40;94.10;;;;;;5061029;28;20364;-79
2022/03/31 08:12:05;;;;;;;2.27;1.30;;;4.50;94.10;;;;;;5061000;28;20024;-78
2022/03/31 08:14:31;;;;;;;3.17;1.50;;;4.40;94.00;;;;;;5077472;28;20032;-77
2022/03/31 08:16:57;;;;;;;1.90;1.20;;;4.40;93.90;;;;;;5060614;28;20062;-77
2022/03/31 08:19:23;;;;;;;2.57;1.40;;;4.40;94.00;;;;;;5060584;28;20055;-77
2022/03/31 08:21:48;;;;;;;2.10;1.20;;;4.40;94.00;;;;;;5076088;28;20032;-77
2022/03/31 08:24:15;;;;;;;1.80;1.10;;;4.60;94.00;;;;;;5095257;28;20033;-77
2022/03/31 08:26:42;;;;;;;2.67;1.50;;;4.60;94.10;;;;;;5077204;28;20024;-78
2022/03/31 08:29:08;;;;;;;2.20;1.20;;;4.60;94.00;;;;;;5076919;28;20081;-77
2022/03/31 08:31:35;;;;;;;2.50;1.43;;;4.80;94.20;;;;;;5095127;28;20082;-77
2022/03/31 08:34:01;;;;;;;2.67;1.40;;;4.60;94.00;;;;;;5076838;28;20012;-77
2022/03/31 08:36:29;;;;;;;2.60;1.47;;;4.60;93.90;;;;;;5060567;28;20027;-77
2022/03/31 08:38:54;;;;;;;2.63;1.23;;;4.60;94.00;;;;;;5060249;28;20454;-77
2022/03/31 08:41:23;;;;;;;3.00;1.23;;;4.70;94.10;;;;;;5094686;28;20024;-77
2022/03/31 08:43:49;;;;;;;2.60;1.37;;;4.70;94.00;;;;;;5076538;28;20174;-77
2022/03/31 08:46:16;;;;;;;2.07;1.20;;;4.70;94.10;;;;;;5076721;28;20044;-76
2022/03/31 08:48:43;;;;;;;2.60;1.30;;;4.70;94.00;;;;;;5059750;28;20089;-77
2022/03/31 08:51:09;;;;;;;2.30;1.20;;;4.60;93.90;;;;;;5059427;28;20341;-77
2022/03/31 08:53:35;;;;;;;2.97;1.70;;;4.70;93.90;;;;;;5076212;28;20042;-76
2022/03/31 08:56:02;;;;;;;3.10;1.47;;;4.70;93.90;;;;;;5094418;28;20028;-76
2022/03/31 08:58:28;;;;;;;2.97;1.50;;;4.70;93.90;;;;;;5094491;28;20085;-76
2022/03/31 09:00:53;;;;;;;4.87;1.17;;;4.60;93.80;;;;;;5043451;28;20021;-76
2022/03/31 09:03:20;;;;;;;2.53;1.30;;;4.60;93.80;;;;;;5059702;28;20052;-76
2022/03/31 09:05:51;;;;;;;3.80;1.50;;;4.70;93.90;;;;;;5059359;28;20067;-77
2022/03/31 09:08:17;;;;;;;2.80;1.47;;;4.70;94.00;;;;;;5076802;28;20027;-76
2022/03/31 09:10:52;;;;;;;3.63;1.40;;;4.70;94.10;;;;;;5076178;28;20024;-77
2022/03/31 09:13:26;;;;;;;2.73;1.50;;;4.90;94.10;;;;;;5076383;28;20033;-77
2022/03/31 09:15:57;;;;;;;2.97;1.70;;;4.80;94.00;;;;;;5094499;28;20032;-77
2022/03/31 09:18:25;;;;;;;2.70;1.70;;;4.80;94.10;;;;;;5076240;28;20020;-76
2022/03/31 09:20:54;;;;;;;3.27;1.63;;;4.80;94.10;;;;;;5059609;28;20491;-77
2022/03/31 09:23:25;;;;;;;3.03;1.70;;;4.80;94.10;;;;;;5075999;28;20161;-76
2022/03/31 09:25:52;;;;;;;2.13;1.30;;;4.70;94.00;;;;;;5094184;28;20030;-76
2022/03/31 09:28:22;;;;;;;4.20;1.40;;;4.70;94.10;;;;;;5059808;28;20024;-76
2022/03/31 09:30:55;;;;;;;3.13;1.50;;;4.80;94.00;;;;;;5094007;28;20111;-76
2022/03/31 09:33:44;;;;;;;4.50;1.70;;;4.80;94.00;;;;;;5075551;28;20043;-76
2022/03/31 09:36:15;;;;;;;3.50;1.80;;;4.80;94.10;;;;;;5093832;28;20023;-77
2022/03/31 09:38:50;;;;;;;3.17;1.77;;;4.80;94.10;;;;;;5075770;28;20489;-76
2022/03/31 09:41:37;;;;;;;3.77;2.13;;;4.90;94.10;;;;;;5075629;28;20063;-77
2022/03/31 09:44:14;;;;;;;3.63;2.10;;;4.90;94.20;;;;;;5093723;28;20024;-76
2022/03/31 09:46:41;;;;;;;3.00;1.63;;;4.90;94.10;;;;;;5076283;28;20388;-77
2022/03/31 09:49:13;;;;;;;3.70;2.33;;;5.00;94.10;;;;;;5075400;28;20055;-76
2022/03/31 09:51:40;;;;;;;3.63;2.23;;;4.80;94.00;;;;;;5075875;28;20035;-77
2022/03/31 09:54:06;;;;;;;3.77;2.27;;;4.90;93.90;;;;;;5075466;28;20028;-76
2022/03/31 09:56:38;;;;;;;3.57;1.87;;;4.90;94.10;;;;;;5093700;28;20107;-80
2022/03/31 09:59:06;;;;;;;2.80;1.53;;;4.90;94.00;;;;;;5075508;28;20069;-79
2022/03/31 10:01:33;;;;;;;3.13;1.73;;;4.90;94.00;;;;;;5042480;28;20032;-78
2022/03/31 10:03:58;;;;;;;4.07;2.23;;;5.00;94.20;;;;;;5059008;28;20032;-78
2022/03/31 10:06:25;;;;;;;4.97;2.60;;;5.00;94.20;;;;;;5075351;28;20020;-77
2022/03/31 10:08:51;;;;;;;3.73;2.10;;;5.10;94.20;;;;;;5075219;28;20024;-77
2022/03/31 10:11:19;;;;;;;3.87;2.30;;;5.00;94.20;;;;;;5075175;28;20107;-77
2022/03/31 10:14:19;;;;;;;4.80;2.60;;;5.00;94.10;;;;;;5093640;28;20028;-77
2022/03/31 10:16:53;;;;;;;4.67;2.47;;;5.00;94.30;;;;;;5075508;28;20093;-77
2022/03/31 10:19:37;;;;;;;4.90;2.67;;;5.10;94.20;;;;;;5093295;28;20031;-77
2022/03/31 10:22:08;;;;;;;4.50;2.90;;;5.10;94.20;;;;;;5075390;28;20116;-78
2022/03/31 10:24:44;;;;;;;4.00;2.60;;;5.10;94.40;;;;;;5093183;28;20059;-78
2022/03/31 10:27:31;;;;;;;4.80;2.90;;;5.20;94.20;;;;;;5075195;28;20104;-77
2022/03/31 10:30:09;;;;;;;4.07;2.57;;;5.10;94.20;;;;;;5093032;28;20021;-79
2022/03/31 10:32:34;;;;;;;4.37;2.63;;;5.20;94.10;;;;;;5075234;28;20028;-77
2022/03/31 10:35:01;;;;;;;4.33;2.60;;;5.20;94.00;;;;;;5075174;28;20028;-77
2022/03/31 10:37:36;;;;;;;3.83;2.73;;;5.20;94.00;;;;;;5093402;28;20027;-77
2022/03/31 10:40:09;;;;;;;4.23;2.10;;;5.20;94.00;;;;;;5075377;28;20024;-74
2022/03/31 10:42:36;;;;;;;3.80;2.30;;;5.30;94.00;;;;;;5093484;28;20016;-78
2022/03/31 10:45:12;;;;;;;4.13;2.60;;;5.30;93.90;;;;;;5096020;28;20028;-77
2022/03/31 10:47:40;;;;;;;4.70;2.47;;;5.40;93.90;;;;;;5079667;28;20016;-78
2022/03/31 10:50:08;;;;;;;3.43;2.43;;;5.40;94.00;;;;;;5075510;28;20044;-77
2022/03/31 10:52:34;;;;;;;3.80;2.33;;;5.50;93.90;;;;;;5075980;28;20060;-77
2022/03/31 10:55:19;;;;;;;4.23;2.60;;;5.50;93.90;;;;;;5076951;28;20107;-77
2022/03/31 10:57:45;;;;;;;2.58;1.85;;;5.60;93.90;;;;;;5075944;28;20555;-77
2022/03/31 11:00:16;;;;;;;5.27;2.00;;;5.70;94.00;;;;;;5077129;28;20100;-77
2022/03/31 11:02:45;;;;;;;4.00;2.23;;;5.80;93.90;;;;;;5075445;28;20491;-79
2022/03/31 11:05:12;;;;;;;3.83;2.13;;;5.80;93.70;;;;;;5074841;28;20461;-76
2022/03/31 11:07:38;;;;;;;3.43;2.30;;;5.90;93.70;;;;;;5050883;28;20048;-77
2022/03/31 11:10:09;;;;;;;4.00;2.13;;;6.00;93.50;;;;;;5072329;28;20067;-80
2022/03/31 11:12:36;;;;;;;2.70;1.57;;;5.90;93.20;;;;;;5055163;28;20452;-77
2022/03/31 11:15:12;;;;;;;3.03;1.80;;;5.90;93.10;;;;;;5074377;28;20118;-79
2022/03/31 11:17:40;;;;;;;3.80;2.30;;;5.80;93.10;;;;;;5042166;28;20032;-77
2022/03/31 11:20:17;;;;;;;3.07;1.87;;;5.80;93.20;;;;;;5055028;28;20040;-77
2022/03/31 11:22:52;;;;;;;3.20;1.57;;;5.80;93.20;;;;;;5055108;28;20497;-79
2022/03/31 11:25:19;;;;;;;2.17;1.20;;;5.80;93.30;;;;;;5065589;28;20481;-80
2022/03/31 11:27:47;;;;;;;2.37;1.40;;;5.80;93.30;;;;;;5062469;28;20017;-77
2022/03/31 11:30:25;;;;;;;2.63;1.30;;;5.80;93.50;;;;;;5054771;28;20500;-77
2022/03/31 11:32:56;;;;;;;2.33;1.23;;;5.80;93.40;;;;;;5055506;28;20024;-77
2022/03/31 11:35:26;;;;;;;3.00;1.50;;;5.80;93.60;;;;;;5038735;28;20025;-78
2022/03/31 11:38:00;;;;;;;1.57;0.90;;;5.80;93.90;;;;;;5054953;28;20028;-79
2022/03/31 11:40:38;;;;;;;3.50;1.40;;;5.90;93.50;;;;;;5056116;28;20104;-77
2022/03/31 11:43:06;;;;;;;2.00;1.40;;;6.00;93.40;;;;;;5054638;28;20025;-77
2022/03/31 11:45:36;;;;;;;2.73;1.30;;;6.00;93.40;;;;;;5054778;28;20409;-79
2022/03/31 11:48:11;;;;;;;2.60;1.33;;;6.00;93.80;;;;;;5054963;28;20101;-77
2022/03/31 11:50:39;;;;;;;2.37;1.20;;;6.00;93.70;;;;;;5070886;28;20063;-77
2022/03/31 11:53:18;;;;;;;1.63;0.97;;;6.00;93.20;;;;;;5057939;28;20533;-79
2022/03/31 11:56:05;;;;;;;1.90;1.10;;;6.00;93.20;;;;;;5057774;28;20035;-77
2022/03/31 11:58:42;;;;;;;1.80;1.00;;;5.90;93.10;;;;;;5058020;28;20036;-77
2022/03/31 12:01:07;;;;;;;2.73;1.70;;;5.90;93.10;;;;;;5075718;28;20028;-78
2022/03/31 12:03:37;;;;;;;2.43;1.17;;;5.90;93.10;;;;;;5075657;28;20035;-78
2022/03/31 12:06:05;;;;;;;2.90;1.50;;;5.80;93.10;;;;;;5040984;28;20492;-77
2022/03/31 12:08:32;;;;;;;2.50;1.20;;;5.80;93.10;;;;;;5058368;28;20031;-78
2022/03/31 12:10:58;;;;;;;3.37;1.30;;;5.80;93.20;;;;;;5024556;28;20035;-78
2022/03/31 12:13:26;;;;;;;3.60;1.53;;;5.70;93.30;;;;;;5040982;28;20028;-79
2022/03/31 12:16:09;;;;;;;3.93;1.10;;;5.70;93.40;;;;;;5075485;28;20036;-79
2022/03/31 12:18:36;;;;;;;2.83;1.00;;;5.70;93.30;;;;;;5073988;28;20400;-79
2022/03/31 12:21:06;;;;;;;3.03;1.50;;;5.70;93.30;;;;;;5057378;28;20067;-77
2022/03/31 12:23:32;;;;;;;1.70;0.80;;;5.70;93.40;;;;;;5057175;28;20059;-77
2022/03/31 12:25:57;;;;;;;1.67;0.90;;;5.70;93.70;;;;;;5024285;28;20052;-80
2022/03/31 12:28:24;;;;;;;2.00;1.00;;;5.70;93.20;;;;;;5040453;28;20087;-78
2022/03/31 12:30:54;;;;;;;2.13;1.10;;;5.70;93.20;;;;;;5057247;28;20031;-81
2022/03/31 12:33:30;;;;;;;1.70;0.90;;;5.70;93.20;;;;;;5077070;28;20071;-79
2022/03/31 12:36:02;;;;;;;4.53;0.80;;;5.60;93.20;;;;;;5094953;28;20030;-80
2022/03/31 12:38:36;;;;;;;1.23;0.70;;;5.60;93.20;;;;;;5077200;28;20020;-79
2022/03/31 12:41:03;;;;;;;2.33;0.90;;;5.60;93.20;;;;;;5076977;28;20399;-79
2022/03/31 12:43:28;;;;;;;4.17;1.00;;;5.50;93.20;;;;;;5060184;28;20040;-79
2022/03/31 12:45:54;;;;;;;1.43;0.73;;;5.60;93.30;;;;;;5077194;28;20175;-80
2022/03/31 12:48:20;;;;;;;1.73;0.80;;;5.50;93.30;;;;;;5095107;28;20016;-82
2022/03/31 12:50:46;;;;;;;1.53;0.80;;;5.60;93.30;;;;;;5043438;28;20502;-77
2022/03/31 12:53:12;;;;;;;2.40;0.57;;;5.70;93.30;;;;;;5059828;28;20028;-80
2022/03/31 12:55:41;;;;;;;1.40;0.70;;;5.70;93.30;;;;;;5076287;28;20357;-78
2022/03/31 12:58:08;;;;;;;4.00;0.80;;;5.70;93.40;;;;;;5060123;28;20028;-78
2022/03/31 13:00:35;;;;;;;1.33;0.70;;;5.70;93.30;;;;;;5059922;28;20024;-79